createdAt,value
2023-02-12T00:01:20.311Z,102032.50
2023-02-12T00:03:47.197Z,102023.75
2023-02-12T00:06:15.894Z,102012.31
2023-02-12T00:08:42.987Z,102012.34
2023-02-12T00:11:14.982Z,102022.88
2023-02-12T00:13:42.392Z,102023.84
2023-02-12T00:16:11.956Z,102011.63
2023-02-12T00:18:38.796Z,102017.66
2023-02-12T00:21:06.149Z,102016.66
2023-02-12T00:23:32.824Z,102019.19
2023-02-12T00:25:59.646Z,102017.41
2023-02-12T00:28:27.131Z,102019.91
2023-02-12T00:30:55.520Z,102011.28
2023-02-12T00:33:22.277Z,102014.00
2023-02-12T00:35:56.688Z,102014.97
2023-02-12T00:38:23.649Z,102020.22
2023-02-12T00:40:50.484Z,102022.06
2023-02-12T00:43:17.322Z,102026.44
2023-02-12T00:45:47.586Z,102033.38
2023-02-12T00:48:15.172Z,102029.81
2023-02-12T00:50:44.077Z,102036.75
2023-02-12T00:53:10.796Z,102028.06
2023-02-12T00:55:37.577Z,102018.53
2023-02-12T00:58:04.310Z,102019.53
2023-02-12T01:00:31.006Z,102023.00
2023-02-12T01:02:57.726Z,102036.25
2023-02-12T01:05:25.227Z,102030.06
2023-02-12T01:07:53.520Z,102031.72
2023-02-12T01:10:20.954Z,102042.34
2023-02-12T01:12:48.356Z,102038.88
2023-02-12T01:15:16.360Z,102033.53
2023-02-12T01:17:43.424Z,102028.34
2023-02-12T01:20:14.544Z,102032.66
2023-02-12T01:22:41.442Z,102024.75
2023-02-12T01:25:08.453Z,102034.34
2023-02-12T01:27:35.220Z,102039.41
2023-02-12T01:30:02.175Z,102034.97
2023-02-12T01:32:29.237Z,102032.34
2023-02-12T01:34:55.959Z,102035.84
2023-02-12T01:37:22.689Z,102035.81
2023-02-12T01:39:49.466Z,102029.63
2023-02-12T01:42:18.903Z,102026.13
2023-02-12T01:45:14.184Z,102027.91
2023-02-12T01:47:42.444Z,102030.38
2023-02-12T01:50:17.566Z,102034.84
2023-02-12T01:52:47.471Z,102024.25
2023-02-12T01:55:14.653Z,102022.56
2023-02-12T01:57:44.130Z,102019.03
2023-02-12T02:00:14.580Z,102018.09
2023-02-12T02:02:43.763Z,102023.38
2023-02-12T02:05:13.227Z,102018.25
2023-02-12T02:07:40.710Z,102014.00
2023-02-12T02:10:08.472Z,102020.16
2023-02-12T02:12:54.400Z,102020.03
2023-02-12T02:15:21.137Z,102022.66
2023-02-12T02:18:23.076Z,102027.16
2023-02-12T02:21:26.753Z,102032.44
2023-02-12T02:24:31.695Z,102022.25
2023-02-12T02:27:23.078Z,102016.06
2023-02-12T02:30:14.623Z,102019.56
2023-02-12T02:32:44.301Z,102017.59
2023-02-12T02:35:15.570Z,102017.53
2023-02-12T02:37:42.201Z,102008.75
2023-02-12T02:40:14.993Z,102023.75
2023-02-12T02:42:47.597Z,102023.88
2023-02-12T02:45:28.656Z,102022.25
2023-02-12T02:48:10.644Z,102022.19
2023-02-12T02:50:41.120Z,102020.34
2023-02-12T02:53:14.483Z,102016.91
2023-02-12T02:55:48.221Z,102023.94
2023-02-12T02:58:18.898Z,102022.06
2023-02-12T03:01:02.297Z,102019.53
2023-02-12T03:03:36.939Z,102019.72
2023-02-12T03:06:09.532Z,102011.53
2023-02-12T03:08:40.266Z,102009.72
2023-02-12T03:11:14.985Z,102008.88
2023-02-12T03:13:51.226Z,102024.81
2023-02-12T03:16:21.672Z,102026.78
2023-02-12T03:19:10.347Z,102030.31
2023-02-12T03:21:58.800Z,102028.59
2023-02-12T03:24:56.373Z,102036.47
2023-02-12T03:27:36.497Z,102031.09
2023-02-12T03:30:04.230Z,102038.91
2023-02-12T03:32:39.002Z,102039.81
2023-02-12T03:35:24.909Z,102027.59
2023-02-12T03:38:03.407Z,102029.22
2023-02-12T03:40:35.253Z,102028.19
2023-02-12T03:43:04.620Z,102033.41
2023-02-12T03:45:49.485Z,102030.66
2023-02-12T03:48:31.330Z,102028.88
2023-02-12T03:51:02.909Z,102029.63
2023-02-12T03:53:30.046Z,102028.75
2023-02-12T03:56:02.664Z,102022.66
2023-02-12T03:58:30.617Z,102018.25
2023-02-12T04:00:57.571Z,102025.25
2023-02-12T04:03:25.060Z,102033.91
2023-02-12T04:05:51.736Z,102029.47
2023-02-12T04:08:18.512Z,102030.38
2023-02-12T04:11:08.136Z,102040.88
2023-02-12T04:14:01.606Z,102037.47
2023-02-12T04:16:40.222Z,102046.22
2023-02-12T04:19:08.004Z,102042.53
2023-02-12T04:21:50.022Z,102039.19
2023-02-12T04:24:19.939Z,102042.63
2023-02-12T04:26:55.693Z,102036.75
2023-02-12T04:29:32.671Z,102043.59
2023-02-12T04:32:07.875Z,102041.91
2023-02-12T04:34:43.538Z,102044.53
2023-02-12T04:37:17.765Z,102047.16
2023-02-12T04:39:45.016Z,102043.72
2023-02-12T04:42:11.910Z,102054.22
2023-02-12T04:44:41.013Z,102055.16
2023-02-12T04:47:07.895Z,102042.81
2023-02-12T04:49:34.565Z,102046.38
2023-02-12T04:52:01.385Z,102047.28
2023-02-12T04:54:28.098Z,102048.13
2023-02-12T04:56:54.794Z,102047.22
2023-02-12T04:59:21.572Z,102051.53
2023-02-12T05:01:48.373Z,102056.84
2023-02-12T05:04:16.701Z,102049.84
2023-02-12T05:06:44.388Z,102051.59
2023-02-12T05:09:14.877Z,102047.22
2023-02-12T05:11:41.711Z,102049.75
2023-02-12T05:14:08.508Z,102049.84
2023-02-12T05:16:35.204Z,102052.47
2023-02-12T05:19:02.061Z,102047.09
2023-02-12T05:21:28.786Z,102047.09
2023-02-12T05:23:55.524Z,102042.88
2023-02-12T05:26:22.706Z,102037.69
2023-02-12T05:28:49.585Z,102034.91
2023-02-12T05:31:21.131Z,102042.81
2023-02-12T05:33:49.184Z,102041.09
2023-02-12T05:36:18.097Z,102043.72
2023-02-12T05:38:44.821Z,102045.59
2023-02-12T05:41:12.764Z,102048.16
2023-02-12T05:43:40.341Z,102056.13
2023-02-12T05:46:07.651Z,102050.88
2023-02-12T05:48:34.857Z,102052.56
2023-02-12T05:51:03.750Z,102055.16
2023-02-12T05:53:30.856Z,102059.47
2023-02-12T05:56:17.277Z,102054.47
2023-02-12T05:58:46.748Z,102061.31
2023-02-12T06:01:21.924Z,102065.69
2023-02-12T06:03:48.723Z,102062.25
2023-02-12T06:06:15.836Z,102063.06
2023-02-12T06:08:42.558Z,102059.47
2023-02-12T06:11:12.849Z,102066.50
2023-02-12T06:13:39.938Z,102071.69
2023-02-12T06:16:07.194Z,102070.81
2023-02-12T06:18:36.868Z,102066.66
2023-02-12T06:21:04.240Z,102069.22
2023-02-12T06:23:30.997Z,102070.13
2023-02-12T06:25:58.102Z,102077.19
2023-02-12T06:28:25.257Z,102084.13
2023-02-12T06:30:52.165Z,102081.63
2023-02-12T06:33:19.006Z,102086.81
2023-02-12T06:35:45.747Z,102085.19
2023-02-12T06:38:12.517Z,102086.16
2023-02-12T06:40:39.272Z,102091.41
2023-02-12T06:43:06.009Z,102088.72
2023-02-12T06:45:33.749Z,102087.00
2023-02-12T06:48:00.445Z,102083.44
2023-02-12T06:50:27.423Z,102088.66
2023-02-12T06:52:54.082Z,102088.72
2023-02-12T06:55:20.816Z,102089.53
2023-02-12T06:57:47.473Z,102094.88
2023-02-12T07:00:14.326Z,102094.88
2023-02-12T07:02:41.224Z,102093.13
2023-02-12T07:05:08.046Z,102094.91
2023-02-12T07:07:34.820Z,102093.13
2023-02-12T07:10:01.600Z,102097.53
2023-02-12T07:12:28.440Z,102102.69
2023-02-12T07:14:55.103Z,102101.06
2023-02-12T07:17:21.745Z,102111.53
2023-02-12T07:19:48.392Z,102102.78
2023-02-12T07:22:15.137Z,102108.91
2023-02-12T07:24:41.975Z,102100.16
2023-02-12T07:27:08.687Z,102102.88
2023-02-12T07:29:35.441Z,102108.97
2023-02-12T07:32:02.179Z,102101.88
2023-02-12T07:34:28.880Z,102115.84
2023-02-12T07:36:55.525Z,102102.75
2023-02-12T07:39:22.300Z,102101.81
2023-02-12T07:41:49.143Z,102112.28
2023-02-12T07:44:15.820Z,102113.09
2023-02-12T07:46:47.701Z,102105.22
2023-02-12T07:49:20.080Z,102119.31
2023-02-12T07:51:47.705Z,102121.81
2023-02-12T07:54:14.952Z,102120.91
2023-02-12T07:56:43.275Z,102120.88
2023-02-12T07:59:12.029Z,102119.00
2023-02-12T08:01:41.092Z,102115.44
2023-02-12T08:04:10.474Z,102118.91
2023-02-12T08:06:42.264Z,102118.06
2023-02-12T08:09:11.046Z,102130.25
2023-02-12T08:11:38.774Z,102122.28
2023-02-12T08:14:06.029Z,102125.81
2023-02-12T08:16:37.187Z,102123.09
2023-02-12T08:19:16.555Z,102130.03
2023-02-12T08:21:44.498Z,102126.47
2023-02-12T08:24:11.826Z,102128.94
2023-02-12T08:26:39.897Z,102128.00
2023-02-12T08:29:12.544Z,102132.34
2023-02-12T08:31:44.368Z,102133.09
2023-02-12T08:34:32.790Z,102128.78
2023-02-12T08:37:00.128Z,102126.84
2023-02-12T08:39:29.150Z,102132.94
2023-02-12T08:41:56.709Z,102131.16
2023-02-12T08:44:23.482Z,102131.13
2023-02-12T08:46:52.076Z,102137.22
2023-02-12T08:49:21.797Z,102125.78
2023-02-12T08:51:50.989Z,102138.94
2023-02-12T08:54:21.234Z,102137.16
2023-02-12T08:56:48.024Z,102134.53
2023-02-12T08:59:15.777Z,102139.81
2023-02-12T09:01:43.324Z,102139.81
2023-02-12T09:04:18.648Z,102139.88
2023-02-12T09:06:46.190Z,102142.41
2023-02-12T09:09:13.158Z,102142.34
2023-02-12T09:11:39.818Z,102146.72
2023-02-12T09:14:09.297Z,102136.13
2023-02-12T09:16:37.082Z,102139.63
2023-02-12T09:19:04.236Z,102141.34
2023-02-12T09:21:30.939Z,102137.88
2023-02-12T09:23:57.732Z,102148.34
2023-02-12T09:26:28.262Z,102149.22
2023-02-12T09:28:55.110Z,102140.41
2023-02-12T09:31:27.378Z,102143.00
2023-02-12T09:34:05.340Z,102143.03
2023-02-12T09:36:32.868Z,102151.66
2023-02-12T09:39:00.382Z,102148.09
2023-02-12T09:41:45.461Z,102140.25
2023-02-12T09:44:27.278Z,102149.00
2023-02-12T09:47:03.696Z,102141.94
2023-02-12T09:50:07.767Z,102139.44
2023-02-12T09:52:35.280Z,102141.03
2023-02-12T09:55:02.534Z,102141.84
2023-02-12T09:57:35.726Z,102138.28
2023-02-12T10:00:06.650Z,102142.91
2023-02-12T10:02:38.734Z,102141.81
2023-02-12T10:05:10.191Z,102136.38
2023-02-12T10:07:42.652Z,102140.75
2023-02-12T10:10:20.462Z,102136.34
2023-02-12T10:13:08.863Z,102132.88
2023-02-12T10:15:39.614Z,102136.22
2023-02-12T10:18:14.191Z,102144.00
2023-02-12T10:20:55.253Z,102139.50
2023-02-12T10:23:34.002Z,102145.59
2023-02-12T10:26:22.917Z,102142.09
2023-02-12T10:28:49.560Z,102140.16
2023-02-12T10:31:23.288Z,102130.34
2023-02-12T10:33:50.699Z,102131.06
2023-02-12T10:36:44.470Z,102126.66
2023-02-12T10:39:12.749Z,102128.53
2023-02-12T10:41:45.075Z,102124.78
2023-02-12T10:44:12.015Z,102118.50
2023-02-12T10:46:39.072Z,102121.84
2023-02-12T10:49:06.588Z,102124.38
2023-02-12T10:51:59.016Z,102116.50
2023-02-12T10:54:42.288Z,102118.97
2023-02-12T10:57:24.124Z,102117.91
2023-02-12T10:59:53.532Z,102109.00
2023-02-12T11:02:32.646Z,102113.44
2023-02-12T11:05:01.070Z,102108.13
2023-02-12T11:07:28.562Z,102099.22
2023-02-12T11:09:56.845Z,102099.16
2023-02-12T11:12:33.582Z,102098.25
2023-02-12T11:15:03.517Z,102099.84
2023-02-12T11:17:39.670Z,102095.41
2023-02-12T11:20:06.421Z,102087.44
2023-02-12T11:22:33.193Z,102091.75
2023-02-12T11:25:02.515Z,102078.47
2023-02-12T11:27:31.142Z,102080.16
2023-02-12T11:30:17.064Z,102080.03
2023-02-12T11:32:44.268Z,102084.31
2023-02-12T11:35:15.456Z,102082.47
2023-02-12T11:37:43.621Z,102073.59
2023-02-12T11:40:24.141Z,102077.91
2023-02-12T11:42:57.878Z,102071.56
2023-02-12T11:45:34.487Z,102069.84
2023-02-12T11:48:01.476Z,102072.19
2023-02-12T11:50:30.161Z,102068.63
2023-02-12T11:53:02.675Z,102064.19
2023-02-12T11:55:35.363Z,102065.00
2023-02-12T11:58:21.820Z,102063.31
2023-02-12T12:00:54.727Z,102056.94
2023-02-12T12:03:53.655Z,102055.19
2023-02-12T12:06:46.370Z,102059.56
2023-02-12T12:09:26.883Z,102053.25
2023-02-12T12:12:05.086Z,102050.50
2023-02-12T12:15:01.306Z,102042.38
2023-02-12T12:18:39.329Z,102049.53
2023-02-12T12:21:20.990Z,102040.56
2023-02-12T12:23:53.055Z,102044.69
2023-02-12T12:26:26.004Z,102042.00
2023-02-12T12:29:02.163Z,102049.84
2023-02-12T12:31:33.740Z,102038.31
2023-02-12T12:34:03.816Z,102045.16
2023-02-12T12:36:51.908Z,102046.84
2023-02-12T12:39:32.644Z,102040.75
2023-02-12T12:42:28.340Z,102034.41
2023-02-12T12:45:10.248Z,102032.53
2023-02-12T12:47:42.587Z,102031.41
2023-02-12T12:50:27.684Z,102023.63
2023-02-12T12:53:00.608Z,102030.47
2023-02-12T12:55:38.082Z,102019.88
2023-02-12T12:58:25.049Z,102020.59
2023-02-12T13:01:19.056Z,102018.25
2023-02-12T13:04:10.880Z,102009.28
2023-02-12T13:06:56.922Z,102004.81
2023-02-12T13:09:32.775Z,102009.84
2023-02-12T13:12:11.311Z,102003.66
2023-02-12T13:14:44.943Z,101997.19
2023-02-12T13:17:23.336Z,101985.69
2023-02-12T13:19:59.680Z,101991.56
2023-02-12T13:22:50.334Z,101992.50
2023-02-12T13:25:22.767Z,101986.91
2023-02-12T13:27:50.981Z,101990.28
2023-02-12T13:30:22.534Z,101975.22
2023-02-12T13:33:00.308Z,101972.56
2023-02-12T13:35:29.604Z,101975.75
2023-02-12T13:37:57.156Z,101978.22
2023-02-12T13:40:27.423Z,101974.53
2023-02-12T13:43:13.032Z,101965.75
2023-02-12T13:45:51.548Z,101966.44
2023-02-12T13:48:35.522Z,101960.38
2023-02-12T13:51:28.721Z,101961.13
2023-02-12T13:54:05.426Z,101965.28
2023-02-12T13:56:46.817Z,101954.69
2023-02-12T13:59:50.422Z,101950.63
2023-02-12T14:02:33.647Z,101952.06
2023-02-12T14:05:03.031Z,101951.84
2023-02-12T14:07:57.119Z,101953.91
2023-02-12T14:10:28.153Z,101952.84
2023-02-12T14:12:58.318Z,101948.47
2023-02-12T14:15:27.876Z,101943.97
2023-02-12T14:18:01.346Z,101945.09
2023-02-12T14:20:32.686Z,101944.91
2023-02-12T14:23:19.959Z,101943.25
2023-02-12T14:25:58.775Z,101939.69
2023-02-12T14:28:31.606Z,101929.94
2023-02-12T14:31:20.194Z,101945.97
2023-02-12T14:33:51.575Z,101934.19
2023-02-12T14:36:38.943Z,101928.97
2023-02-12T14:39:29.018Z,101932.53
2023-02-12T14:42:15.920Z,101937.09
2023-02-12T14:44:56.555Z,101925.41
2023-02-12T14:47:28.896Z,101927.06
2023-02-12T14:49:58.023Z,101921.63
2023-02-12T14:52:39.708Z,101929.91
2023-02-12T14:55:19.221Z,101926.25
2023-02-12T14:57:46.428Z,101918.19
2023-02-12T15:00:24.236Z,101917.47
2023-02-12T15:02:54.960Z,101922.63
2023-02-12T15:05:28.118Z,101926.91
2023-02-12T15:08:03.623Z,101917.56
2023-02-12T15:10:36.066Z,101922.56
2023-02-12T15:13:09.003Z,101917.38
2023-02-12T15:15:43.038Z,101912.84
2023-02-12T15:18:16.458Z,101905.75
2023-02-12T15:21:12.917Z,101920.81
2023-02-12T15:23:45.006Z,101906.56
2023-02-12T15:26:20.640Z,101912.84
2023-02-12T15:28:49.859Z,101906.41
2023-02-12T15:31:19.884Z,101903.81
2023-02-12T15:33:49.974Z,101905.63
2023-02-12T15:36:20.658Z,101909.09
2023-02-12T15:38:53.743Z,101906.56
2023-02-12T15:41:32.616Z,101896.97
2023-02-12T15:44:23.832Z,101897.63
2023-02-12T15:47:08.608Z,101892.47
2023-02-12T15:49:37.098Z,101894.84
2023-02-12T15:52:24.962Z,101888.94
2023-02-12T15:54:51.983Z,101885.09
2023-02-12T15:57:23.774Z,101884.41
2023-02-12T15:59:52.243Z,101887.03
2023-02-12T16:02:28.168Z,101887.44
2023-02-12T16:04:58.243Z,101883.00
2023-02-12T16:07:26.664Z,101886.59
2023-02-12T16:09:56.494Z,101890.22
2023-02-12T16:12:27.350Z,101892.88
2023-02-12T16:14:55.630Z,101886.78
2023-02-12T16:17:25.311Z,101893.00
2023-02-12T16:19:58.021Z,101886.91
2023-02-12T16:22:37.251Z,101895.06
2023-02-12T16:25:05.024Z,101883.47
2023-02-12T16:27:33.793Z,101891.56
2023-02-12T16:30:28.946Z,101895.25
2023-02-12T16:32:56.412Z,101899.53
2023-02-12T16:35:30.639Z,101898.69
2023-02-12T16:38:04.077Z,101898.88
2023-02-12T16:40:33.614Z,101901.47
2023-02-12T16:43:04.138Z,101908.47
2023-02-12T16:45:36.129Z,101914.59
2023-02-12T16:48:24.979Z,101918.19
2023-02-12T16:50:57.555Z,101914.50
2023-02-12T16:53:30.113Z,101918.00
2023-02-12T16:55:58.121Z,101917.19
2023-02-12T16:58:26.396Z,101920.69
2023-02-12T17:00:53.940Z,101919.78
2023-02-12T17:03:21.038Z,101921.69
2023-02-12T17:05:49.325Z,101927.78
2023-02-12T17:08:18.378Z,101923.19
2023-02-12T17:10:45.227Z,101932.25
2023-02-12T17:13:12.126Z,101931.22
2023-02-12T17:15:43.594Z,101936.03
2023-02-12T17:18:11.401Z,101939.47
2023-02-12T17:20:38.831Z,101938.41
2023-02-12T17:23:05.609Z,101945.56
2023-02-12T17:25:34.555Z,101937.63
2023-02-12T17:28:01.481Z,101943.69
2023-02-12T17:30:28.989Z,101952.63
2023-02-12T17:32:55.672Z,101945.69
2023-02-12T17:35:22.441Z,101953.69
2023-02-12T17:37:49.232Z,101953.75
2023-02-12T17:40:16.320Z,101952.84
2023-02-12T17:42:43.007Z,101964.50
2023-02-12T17:45:09.953Z,101968.22
2023-02-12T17:47:39.842Z,101965.50
2023-02-12T17:50:09.174Z,101967.25
2023-02-12T17:52:37.790Z,101972.66
2023-02-12T17:55:06.631Z,101968.28
2023-02-12T17:57:33.634Z,101963.97
2023-02-12T18:00:00.419Z,101970.13
2023-02-12T18:02:27.344Z,101969.41
2023-02-12T18:04:54.053Z,101971.09
2023-02-12T18:07:20.885Z,101974.72
2023-02-12T18:09:47.672Z,101974.88
2023-02-12T18:12:14.672Z,101968.91
2023-02-12T18:14:41.768Z,101982.13
2023-02-12T18:17:08.638Z,101983.91
2023-02-12T18:19:35.797Z,101987.41
2023-02-12T18:22:02.654Z,101978.81
2023-02-12T18:24:31.548Z,101984.91
2023-02-12T18:26:58.398Z,101987.66
2023-02-12T18:29:25.195Z,101991.22
2023-02-12T18:31:54.828Z,101989.47
2023-02-12T18:34:22.102Z,101997.38
2023-02-12T18:36:49.210Z,101995.78
2023-02-12T18:39:16.617Z,101993.19
2023-02-12T18:41:43.332Z,101987.97
2023-02-12T18:44:10.230Z,101988.84
2023-02-12T18:46:37.430Z,101989.88
2023-02-12T18:49:04.377Z,101997.78
2023-02-12T18:51:36.514Z,101994.44
2023-02-12T18:54:07.485Z,101997.06
2023-02-12T18:56:38.011Z,101993.50
2023-02-12T18:59:05.864Z,101992.75
2023-02-12T19:01:33.941Z,101992.63
2023-02-12T19:04:02.918Z,101990.97
2023-02-12T19:06:30.833Z,101991.06
2023-02-12T19:08:59.172Z,101990.47
2023-02-12T19:11:28.060Z,101989.69
2023-02-12T19:13:54.888Z,101989.75
2023-02-12T19:16:23.700Z,101994.38
2023-02-12T19:18:51.313Z,101992.59
2023-02-12T19:21:18.773Z,101994.25
2023-02-12T19:23:45.644Z,101993.50
2023-02-12T19:26:15.072Z,101996.97
2023-02-12T19:28:44.881Z,101998.78
2023-02-12T19:31:20.024Z,101995.31
2023-02-12T19:33:50.329Z,101993.84
2023-02-12T19:36:18.912Z,101991.91
2023-02-12T19:38:46.731Z,101997.16
2023-02-12T19:41:16.815Z,102007.00
2023-02-12T19:43:43.729Z,102005.22
2023-02-12T19:46:16.571Z,101999.97
2023-02-12T19:48:44.560Z,102014.91
2023-02-12T19:51:21.652Z,102012.91
2023-02-12T19:53:48.973Z,102011.50
2023-02-12T19:56:16.238Z,102007.28
2023-02-12T19:58:42.924Z,102004.44
2023-02-12T20:01:12.643Z,102013.25
2023-02-12T20:03:39.676Z,102007.09
2023-02-12T20:06:11.603Z,102011.50
2023-02-12T20:08:39.822Z,102008.94
2023-02-12T20:11:11.064Z,102004.03
2023-02-12T20:13:38.067Z,102012.31
2023-02-12T20:16:09.149Z,102023.00
2023-02-12T20:18:36.238Z,102009.81
2023-02-12T20:21:12.112Z,102022.53
2023-02-12T20:23:38.849Z,102014.41
2023-02-12T20:26:06.766Z,102016.16
2023-02-12T20:28:34.883Z,102030.25
2023-02-12T20:31:19.360Z,102021.09
2023-02-12T20:33:46.676Z,102035.50
2023-02-12T20:36:14.239Z,102037.22
2023-02-12T20:38:42.416Z,102029.53
2023-02-12T20:41:09.683Z,102025.13
2023-02-12T20:43:37.380Z,102028.94
2023-02-12T20:46:09.456Z,102031.84
2023-02-12T20:48:36.777Z,102031.56
2023-02-12T20:51:05.729Z,102033.25
2023-02-12T20:53:35.129Z,102027.97
2023-02-12T20:56:13.245Z,102031.56
2023-02-12T20:58:41.106Z,102040.19
2023-02-12T21:01:09.494Z,102034.81
2023-02-12T21:03:36.845Z,102045.47
2023-02-12T21:06:04.366Z,102045.00
2023-02-12T21:08:31.164Z,102048.56
2023-02-12T21:11:02.479Z,102040.69
2023-02-12T21:13:29.204Z,102043.97
2023-02-12T21:16:26.676Z,102044.28
2023-02-12T21:18:53.920Z,102050.00
2023-02-12T21:21:25.670Z,102044.06
2023-02-12T21:23:55.390Z,102037.81
2023-02-12T21:26:23.906Z,102038.00
2023-02-12T21:28:51.876Z,102038.75
2023-02-12T21:31:21.719Z,102035.09
2023-02-12T21:33:49.733Z,102030.09
2023-02-12T21:36:19.167Z,102035.56
2023-02-12T21:38:47.052Z,102030.28
2023-02-12T21:41:20.524Z,102033.84
2023-02-12T21:43:50.004Z,102043.47
2023-02-12T21:46:18.512Z,102038.91
2023-02-12T21:48:45.561Z,102043.28
2023-02-12T21:51:30.702Z,102038.59
2023-02-12T21:53:59.694Z,102042.75
2023-02-12T21:56:27.157Z,102041.94
2023-02-12T21:58:54.587Z,102041.88
2023-02-12T22:01:24.049Z,102044.41
2023-02-12T22:03:51.535Z,102046.47
2023-02-12T22:06:19.555Z,102043.97
2023-02-12T22:08:46.831Z,102047.66
2023-02-12T22:11:14.070Z,102047.91
2023-02-12T22:13:41.067Z,102053.66
2023-02-12T22:16:16.406Z,102057.75
2023-02-12T22:18:44.476Z,102058.69
2023-02-12T22:21:13.565Z,102058.59
2023-02-12T22:23:40.952Z,102061.88
2023-02-12T22:26:12.894Z,102059.25
2023-02-12T22:28:41.622Z,102058.44
2023-02-12T22:31:09.624Z,102058.53
2023-02-12T22:33:36.332Z,102060.22
2023-02-12T22:36:05.492Z,102056.63
2023-02-12T22:38:39.478Z,102055.84
2023-02-12T22:41:07.583Z,102055.09
2023-02-12T22:43:35.812Z,102056.03
2023-02-12T22:46:02.747Z,102064.72
2023-02-12T22:48:29.543Z,102054.00
2023-02-12T22:50:57.033Z,102056.72
2023-02-12T22:53:24.868Z,102062.78
2023-02-12T22:55:52.377Z,102059.41
2023-02-12T22:58:19.261Z,102060.22
2023-02-12T23:00:46.029Z,102063.03
2023-02-12T23:03:12.756Z,102058.44
2023-02-12T23:05:39.614Z,102060.31
2023-02-12T23:08:06.749Z,102062.03
2023-02-12T23:10:33.587Z,102059.25
2023-02-12T23:13:02.053Z,102058.28
2023-02-12T23:15:29.508Z,102060.09
2023-02-12T23:17:56.251Z,102056.75
2023-02-12T23:20:22.888Z,102062.78
2023-02-12T23:22:49.566Z,102060.16
2023-02-12T23:25:16.300Z,102062.84
2023-02-12T23:27:43.006Z,102062.16
2023-02-12T23:30:10.733Z,102062.75
2023-02-12T23:32:37.402Z,102063.59
2023-02-12T23:35:04.335Z,102057.44
2023-02-12T23:37:30.989Z,102063.44
2023-02-12T23:39:57.664Z,102059.81
2023-02-12T23:42:24.372Z,102058.22
2023-02-12T23:44:51.080Z,102058.28
2023-02-12T23:47:17.703Z,102060.81
2023-02-12T23:49:44.502Z,102061.66
2023-02-12T23:52:11.305Z,102052.91
2023-02-12T23:54:38.069Z,102058.22
2023-02-12T23:57:04.773Z,102059.09
2023-02-12T23:59:31.667Z,102054.53
